Aviation Digital Data Service (ADDS)

Output produced by METARs form (0633 UTC 20 October 2018)
found at http://www.aviationweather.gov/metar/data/
 
GOGS 200600Z VRB02KT CAVOK 27/25 Q1010
TAF GOGS 200530Z 2006/2106 VRB03KT 9999 SCT014
       
GOOK 200600Z 28004KT 8000 NSC 26/22 Q1010
GOTK 200600Z 10010KT 6000 -RA SCT015 BKN130 23/22 Q1011
GOOY 200600Z 36006KT 8000 NSC 25/25 Q1009
TAF GOOY 200530Z 2006/2112 02010KT CAVOK
       
GOSS 200600Z 36004KT CAVOK 25/23 Q1009
TAF GOSS 200530Z 2006/2106 36008KT CAVOK
       
GOTT 200600Z 28004KT CAVOK 25/21 Q1009
GOGG 200600Z 00000KT CAVOPK 25/25 Q1010